createdAt,value
2024-03-02T00:01:21.016Z,23.60
2024-03-02T00:06:22.716Z,24.80
2024-03-02T00:11:24.334Z,23.90
2024-03-02T00:16:31.957Z,20.10
2024-03-02T00:21:33.777Z,19.70
2024-03-02T00:26:35.447Z,21.40
2024-03-02T00:31:36.946Z,20.60
2024-03-02T00:36:38.414Z,19.50
2024-03-02T00:41:43.107Z,20.80
2024-03-02T00:46:44.704Z,25.00
2024-03-02T00:51:51.264Z,23.60
2024-03-02T00:56:55.711Z,24.10
2024-03-02T01:01:57.680Z,21.90
2024-03-02T01:06:59.281Z,22.80
2024-03-02T01:12:01.081Z,21.60
2024-03-02T01:17:04.961Z,21.40
2024-03-02T01:22:06.512Z,23.00
2024-03-02T01:27:08.391Z,21.60
2024-03-02T01:32:09.917Z,21.90
2024-03-02T01:37:11.541Z,21.20
2024-03-02T01:42:13.479Z,24.00
2024-03-02T01:47:15.332Z,22.10
2024-03-02T01:52:16.810Z,20.30
2024-03-02T01:57:18.882Z,23.30
2024-03-02T02:02:20.719Z,21.60
2024-03-02T02:07:22.508Z,21.60
2024-03-02T02:12:24.283Z,21.70
2024-03-02T02:17:25.966Z,21.50
2024-03-02T02:22:27.773Z,19.40
2024-03-02T02:27:29.623Z,21.60
2024-03-02T02:32:31.510Z,20.00
2024-03-02T02:37:33.120Z,21.90
2024-03-02T02:42:34.653Z,22.00
2024-03-02T02:47:36.192Z,23.30
2024-03-02T02:52:41.147Z,20.00
2024-03-02T02:57:43.874Z,20.80
2024-03-02T03:02:49.578Z,18.10
2024-03-02T03:07:51.778Z,21.50
2024-03-02T03:12:53.736Z,21.10
2024-03-02T03:17:55.500Z,20.50
2024-03-02T03:23:00.679Z,21.20
2024-03-02T03:28:02.418Z,18.40
2024-03-02T03:33:06.659Z,20.20
2024-03-02T03:38:08.455Z,20.30
2024-03-02T03:43:10.062Z,19.50
2024-03-02T03:48:12.049Z,19.30
2024-03-02T03:53:15.056Z,22.20
2024-03-02T03:58:20.044Z,19.90
2024-03-02T04:03:23.678Z,20.10
2024-03-02T04:08:25.668Z,22.10
2024-03-02T04:13:27.214Z,22.30
2024-03-02T04:18:28.798Z,21.30
2024-03-02T04:23:30.526Z,21.30
2024-03-02T04:28:32.054Z,22.40
2024-03-02T04:33:33.726Z,23.50
2024-03-02T04:38:35.112Z,20.50
2024-03-02T04:43:36.514Z,23.10
2024-03-02T04:48:38.078Z,22.80
2024-03-02T04:53:39.680Z,18.80
2024-03-02T04:58:41.059Z,21.50
2024-03-02T05:03:42.519Z,21.80
2024-03-02T05:08:45.366Z,22.60
2024-03-02T05:13:47.076Z,20.60
2024-03-02T05:18:49.206Z,23.10
2024-03-02T05:23:50.710Z,22.40
2024-03-02T05:28:52.486Z,22.90
2024-03-02T05:33:57.739Z,22.20
2024-03-02T05:39:00.090Z,22.80
2024-03-02T05:44:02.128Z,20.60
2024-03-02T05:49:04.349Z,21.00
2024-03-02T05:54:06.406Z,19.80
2024-03-02T05:59:14.292Z,21.10
2024-03-02T06:04:16.168Z,23.70
2024-03-02T06:09:18.645Z,22.30
2024-03-02T06:14:20.291Z,22.80
2024-03-02T06:19:22.270Z,21.90
2024-03-02T06:24:23.908Z,22.70
2024-03-02T06:29:25.533Z,22.70
2024-03-02T06:34:27.207Z,23.80
2024-03-02T06:39:28.840Z,24.10
2024-03-02T06:44:30.549Z,21.40
2024-03-02T06:49:32.382Z,22.70
2024-03-02T06:54:35.253Z,23.50
2024-03-02T07:04:58.350Z,23.30
2024-03-02T07:09:59.793Z,22.70
2024-03-02T07:15:04.828Z,22.90
2024-03-02T07:20:07.283Z,24.40
2024-03-02T07:25:08.805Z,23.60
2024-03-02T07:30:11.906Z,23.60
2024-03-02T07:35:14.569Z,24.10
2024-03-02T07:40:36.085Z,23.90
2024-03-02T07:45:37.702Z,22.60
2024-03-02T07:50:39.632Z,22.30
2024-03-02T07:55:41.658Z,23.30
2024-03-02T08:00:43.598Z,21.30
2024-03-02T08:05:45.347Z,24.70
2024-03-02T08:10:47.471Z,21.60
2024-03-02T08:15:49.216Z,24.10
2024-03-02T08:20:50.949Z,25.10
2024-03-02T08:25:52.676Z,22.80
2024-03-02T08:30:54.196Z,22.60
2024-03-02T08:35:57.244Z,22.40
2024-03-02T08:41:18.577Z,21.40
2024-03-02T08:46:20.307Z,24.30
2024-03-02T08:51:21.884Z,23.70
2024-03-02T08:56:24.222Z,24.10
2024-03-02T09:06:27.938Z,22.90
2024-03-02T09:11:29.696Z,22.70
2024-03-02T09:16:51.646Z,25.00
2024-03-02T09:22:13.513Z,22.60
2024-03-02T09:27:35.324Z,24.90
2024-03-02T09:38:19.888Z,22.50
2024-03-02T09:43:22.051Z,23.00
2024-03-02T09:48:43.923Z,22.10
2024-03-02T10:03:52.008Z,23.00
2024-03-02T10:08:58.519Z,23.50
2024-03-02T10:14:11.655Z,20.50
2024-03-02T10:19:24.727Z,22.40
2024-03-02T10:24:26.300Z,21.40
2024-03-02T10:29:30.345Z,23.50
2024-03-02T10:34:31.923Z,25.10
2024-03-02T10:39:36.235Z,24.30
2024-03-02T10:44:38.678Z,24.70
2024-03-02T10:49:43.799Z,21.70
2024-03-02T10:54:45.542Z,23.50
2024-03-02T10:59:53.468Z,22.20
2024-03-02T11:04:55.718Z,21.30
2024-03-02T11:10:08.984Z,23.30
2024-03-02T11:15:13.645Z,24.00
2024-03-02T11:20:15.949Z,23.60
2024-03-02T11:25:28.451Z,23.20
2024-03-02T11:30:32.802Z,21.80
2024-03-02T11:35:48.290Z,21.40
2024-03-02T11:40:50.065Z,21.00
2024-03-02T11:45:58.999Z,21.10
2024-03-02T11:51:01.318Z,20.70
2024-03-02T12:01:24.607Z,21.50
2024-03-02T12:06:27.021Z,21.60
2024-03-02T12:11:28.811Z,22.70
2024-03-02T12:16:30.275Z,20.80
2024-03-02T12:21:52.213Z,21.40
2024-03-02T12:26:54.399Z,19.50
2024-03-02T12:36:57.557Z,18.10
2024-03-02T12:41:59.187Z,17.60
2024-03-02T12:47:20.591Z,20.40
2024-03-02T12:52:23.005Z,20.40
2024-03-02T12:57:31.014Z,18.60
2024-03-02T13:02:35.682Z,20.90
2024-03-02T13:07:38.788Z,20.40
2024-03-02T13:12:40.560Z,20.50
2024-03-02T13:17:42.727Z,19.80
2024-03-02T13:27:49.640Z,18.10
2024-03-02T13:32:51.605Z,18.60
2024-03-02T13:37:53.329Z,16.80
2024-03-02T13:42:55.324Z,21.70
2024-03-02T13:47:57.242Z,21.30
2024-03-02T13:53:19.111Z,17.80
2024-03-02T13:58:21.481Z,20.40
2024-03-02T14:03:24.184Z,23.50
2024-03-02T14:08:26.996Z,20.50
2024-03-02T14:13:29.740Z,20.60
2024-03-02T14:18:32.060Z,20.90
2024-03-02T14:23:53.999Z,20.00
2024-03-02T14:34:38.489Z,17.40
2024-03-02T14:40:01.984Z,21.00
2024-03-02T14:45:23.920Z,17.40
2024-03-02T14:50:26.386Z,20.30
2024-03-02T14:55:47.935Z,16.60
2024-03-02T15:01:09.528Z,21.80
2024-03-02T15:11:13.071Z,17.50
2024-03-02T15:16:14.744Z,19.00
2024-03-02T15:21:16.104Z,19.80
2024-03-02T15:26:17.996Z,17.50
2024-03-02T15:31:19.533Z,17.00
2024-03-02T15:36:21.206Z,16.70
2024-03-02T15:41:22.717Z,16.80
2024-03-02T15:46:24.094Z,18.30
2024-03-02T15:51:25.715Z,16.70
2024-03-02T15:56:27.125Z,20.40
2024-03-02T16:01:30.795Z,24.80
2024-03-02T16:06:32.705Z,25.90
2024-03-02T16:11:36.581Z,18.70
2024-03-02T16:16:38.338Z,18.70
2024-03-02T16:21:39.846Z,20.80
2024-03-02T16:26:41.351Z,23.30
2024-03-02T16:31:42.830Z,23.20
2024-03-02T16:36:44.270Z,27.80
2024-03-02T16:41:47.182Z,30.90
2024-03-02T16:46:49.799Z,31.50
2024-03-02T16:56:52.777Z,23.30
2024-03-02T17:01:54.960Z,26.50
2024-03-02T17:06:56.713Z,24.60
2024-03-02T17:11:58.431Z,31.50
2024-03-02T17:17:00.140Z,44.40
2024-03-02T17:22:01.639Z,56.50
2024-03-02T17:27:03.376Z,27.30
2024-03-02T17:32:04.866Z,42.70
2024-03-02T17:37:26.328Z,30.70
2024-03-02T17:42:29.603Z,26.70
2024-03-02T17:47:31.869Z,23.10
2024-03-02T17:52:33.299Z,27.10
2024-03-02T17:57:34.762Z,23.30
2024-03-02T18:02:36.686Z,26.50
2024-03-02T18:07:38.995Z,21.20
2024-03-02T18:12:40.667Z,21.20
2024-03-02T18:17:42.126Z,20.90
2024-03-02T18:42:43.354Z,21.20
2024-03-02T18:47:45.163Z,28.70
2024-03-02T18:52:47.705Z,26.30
2024-03-02T19:02:50.536Z,23.80
2024-03-02T19:07:52.103Z,30.80
2024-03-02T19:12:53.540Z,34.30
2024-03-02T19:17:55.001Z,31.60
2024-03-02T19:22:56.867Z,30.30
2024-03-02T19:28:18.247Z,25.20
2024-03-02T19:33:39.596Z,27.30
2024-03-02T19:39:01.030Z,22.10
2024-03-02T19:44:22.521Z,20.50
2024-03-02T19:49:44.894Z,19.70
2024-03-02T19:55:06.526Z,20.10
2024-03-02T20:00:29.197Z,18.70
2024-03-02T20:05:50.836Z,19.20
2024-03-02T20:11:15.567Z,18.70
2024-03-02T20:16:37.102Z,18.00
2024-03-02T20:21:38.610Z,17.30
2024-03-02T20:26:40.312Z,20.30
2024-03-02T20:31:42.240Z,20.90
2024-03-02T20:36:45.331Z,20.40
2024-03-02T20:41:48.147Z,20.00
2024-03-02T20:46:49.632Z,22.00
2024-03-02T20:51:51.142Z,19.80
2024-03-02T20:56:53.029Z,18.90
2024-03-02T21:01:54.551Z,19.80
2024-03-02T21:06:56.430Z,20.60
2024-03-02T21:11:58.070Z,17.70
2024-03-02T21:16:59.546Z,19.80
2024-03-02T21:22:01.794Z,19.00
2024-03-02T21:27:03.721Z,19.50
2024-03-02T21:32:05.912Z,17.60
2024-03-02T21:37:07.304Z,18.70
2024-03-02T21:42:09.205Z,20.60
2024-03-02T21:47:10.603Z,18.70
2024-03-02T21:52:12.240Z,17.70
2024-03-02T21:57:20.144Z,18.50
2024-03-02T22:02:21.692Z,20.50
2024-03-02T22:07:23.186Z,19.30
2024-03-02T22:12:24.573Z,18.80
2024-03-02T22:17:28.496Z,19.10
2024-03-02T22:22:30.112Z,29.20
2024-03-02T22:27:33.601Z,30.10
2024-03-02T22:32:35.450Z,29.40
2024-03-02T22:37:37.094Z,22.70
2024-03-02T22:42:38.598Z,19.90
2024-03-02T22:47:40.095Z,26.10
2024-03-02T22:52:41.474Z,28.80
2024-03-02T22:57:43.030Z,22.10
2024-03-02T23:02:44.686Z,27.80
2024-03-02T23:07:46.280Z,22.50
2024-03-02T23:12:47.934Z,23.60
2024-03-02T23:17:49.434Z,22.00
2024-03-02T23:22:51.145Z,21.20
2024-03-02T23:27:52.683Z,21.20
2024-03-02T23:32:54.731Z,23.50
2024-03-02T23:37:56.358Z,21.40
2024-03-02T23:42:57.877Z,19.10
2024-03-02T23:47:59.391Z,22.80
2024-03-02T23:53:00.872Z,23.20
2024-03-02T23:58:02.887Z,24.40
